KIML

Imperial Municipal Airport

Imperial, Nebraska, USA
METAR KIML 240153Z AUTO 15020G28KT 10SM CLR 25/14 A2987 RMK AO2 PK WND 15032/0101 LTG DSNT W AND NW SLP083 T02500144
Observed Flight Rules
May-24 @ 01:53 UTC (20 minutes ago) Visual Flight Rules
Wind Visibility Clouds
150° at 20 knots
 Gusting to 28 knots
10 miles
  • Clear skies
Temperatures Readings
Current 25°C / 77°F
Dewpoint 14°C / 57°F
Humidity 51%
Altimeter 29.87" Hg
Pressure 1008.3 hPa
Elevation 998
METAR KIML 240153Z AUTO 15020G28KT 10SM CLR 25/14 A2987 RMK AO2 PK WND 15032/0101 LTG DSNT W AND NW SLP083 T02500144
Observed Flight Rules
May-24 @ 01:53 UTC
(20 minutes ago)
VFR
Wind Visibility
150° at 20 knots
 Gusting to 28 knots
10 miles
Clouds
  • Clear skies
Temperature Dewpoint
25°C / 77°F 14°C / 57°F
Humidity Altimeter Pressure
51% 29.87" Hg 1008.3 hPa